createdAt,value
2022-12-27T00:00:33.974Z,101626.19
2022-12-27T00:05:36.241Z,101618.63
2022-12-27T00:10:39.158Z,101603.25
2022-12-27T00:15:41.346Z,101592.38
2022-12-27T00:20:43.480Z,101583.34
2022-12-27T00:25:45.607Z,101620.91
2022-12-27T00:30:55.511Z,101626.44
2022-12-27T00:36:01.244Z,101606.53
2022-12-27T00:41:04.313Z,101616.94
2022-12-27T00:46:06.961Z,101618.28
2022-12-27T00:51:15.145Z,101635.81
2022-12-27T00:56:20.172Z,101609.31
2022-12-27T01:01:24.419Z,101632.53
2022-12-27T01:06:29.527Z,101638.72
2022-12-27T01:11:33.268Z,101628.91
2022-12-27T01:16:35.654Z,101619.97
2022-12-27T01:21:37.845Z,101596.78
2022-12-27T01:26:40.093Z,101622.41
2022-12-27T01:31:42.255Z,101599.34
2022-12-27T01:36:45.230Z,101577.00
2022-12-27T01:42:05.946Z,101606.97
2022-12-27T01:47:20.071Z,101617.47
2022-12-27T01:52:24.829Z,101590.88
2022-12-27T01:57:27.115Z,101586.53
2022-12-27T02:02:29.608Z,101591.13
2022-12-27T02:07:42.425Z,101579.28
2022-12-27T02:12:44.763Z,101567.22
2022-12-27T02:17:47.130Z,101581.09
2022-12-27T02:23:26.520Z,101596.09
2022-12-27T02:28:46.984Z,101597.19
2022-12-27T02:33:52.610Z,101571.94
2022-12-27T02:38:59.529Z,101598.53
2022-12-27T02:44:20.635Z,101587.66
2022-12-27T02:49:51.587Z,101573.88
2022-12-27T02:55:09.562Z,101520.19
2022-12-27T03:00:35.739Z,101580.63
2022-12-27T03:06:30.157Z,101575.31
2022-12-27T03:12:16.082Z,101569.41
2022-12-27T03:17:31.116Z,101560.81
2022-12-27T03:22:54.349Z,101575.06
2022-12-27T03:28:23.597Z,101570.84
2022-12-27T03:33:29.178Z,101566.03
2022-12-27T03:38:36.868Z,101518.88
2022-12-27T03:43:40.922Z,101532.53
2022-12-27T03:49:04.010Z,101557.16
2022-12-27T03:54:11.655Z,101564.47
2022-12-27T03:59:13.839Z,101567.34
2022-12-27T04:04:16.053Z,101557.94
2022-12-27T04:09:36.860Z,101578.81
2022-12-27T04:14:57.132Z,101576.78
2022-12-27T04:20:17.891Z,101578.09
2022-12-27T04:25:38.167Z,101588.09
2022-12-27T04:30:58.681Z,101584.91
2022-12-27T04:36:06.008Z,101541.91
2022-12-27T04:41:26.937Z,101553.75
2022-12-27T04:46:47.802Z,101541.06
2022-12-27T04:52:08.311Z,101543.59
2022-12-27T04:57:10.492Z,101565.81
2022-12-27T05:02:12.995Z,101578.25
2022-12-27T05:07:35.131Z,101577.28
2022-12-27T05:12:55.690Z,101541.47
2022-12-27T05:17:58.420Z,101582.69
2022-12-27T05:23:19.405Z,101557.81
2022-12-27T05:28:21.541Z,101585.63
2022-12-27T05:33:23.711Z,101580.69
2022-12-27T05:38:25.863Z,101552.44
2022-12-27T05:43:28.952Z,101581.13
2022-12-27T05:48:31.603Z,101562.97
2022-12-27T05:53:33.842Z,101568.50
2022-12-27T05:58:36.185Z,101572.06
2022-12-27T06:03:39.199Z,101598.31
2022-12-27T06:08:41.879Z,101600.00
2022-12-27T06:13:49.036Z,101530.44
2022-12-27T06:18:51.306Z,101591.81
2022-12-27T06:23:53.538Z,101591.03
2022-12-27T06:28:57.938Z,101623.00
2022-12-27T06:34:00.090Z,101585.59
2022-12-27T06:39:02.436Z,101615.41
2022-12-27T06:44:04.755Z,101589.09
2022-12-27T06:49:07.019Z,101602.44
2022-12-27T06:54:09.250Z,101565.97
2022-12-27T06:59:11.440Z,101594.59
2022-12-27T07:04:13.584Z,101581.88
2022-12-27T07:09:15.870Z,101591.09
2022-12-27T07:14:18.082Z,101606.78
2022-12-27T07:19:20.270Z,101587.47
2022-12-27T07:24:22.471Z,101616.88
2022-12-27T07:29:24.683Z,101596.13
2022-12-27T07:34:26.805Z,101627.81
2022-12-27T07:39:29.352Z,101580.41
2022-12-27T07:44:31.471Z,101609.63
2022-12-27T07:49:33.676Z,101603.31
2022-12-27T07:54:36.336Z,101622.41
2022-12-27T07:59:38.522Z,101592.16
2022-12-27T08:04:40.753Z,101613.81
2022-12-27T08:09:45.741Z,101618.41
2022-12-27T08:14:47.912Z,101616.47
2022-12-27T08:19:52.696Z,101629.63
2022-12-27T08:24:56.648Z,101611.88
2022-12-27T08:29:58.869Z,101620.38
2022-12-27T08:37:16.176Z,101635.31
2022-12-27T08:42:18.435Z,101629.00
2022-12-27T08:47:20.631Z,101617.06
2022-12-27T08:52:22.787Z,101596.84
2022-12-27T08:57:24.980Z,101597.41
2022-12-27T09:02:27.284Z,101601.75
2022-12-27T09:07:30.097Z,101598.94
2022-12-27T09:12:33.859Z,101580.22
2022-12-27T09:17:36.382Z,101594.94
2022-12-27T09:22:40.072Z,101592.75
2022-12-27T09:27:42.198Z,101548.31
2022-12-27T09:32:44.412Z,101563.84
2022-12-27T09:37:46.563Z,101576.13
2022-12-27T09:43:19.063Z,101559.09
2022-12-27T09:48:35.076Z,101531.84
2022-12-27T09:53:51.768Z,101508.97
2022-12-27T09:58:57.816Z,101539.31
2022-12-27T10:04:01.000Z,101487.97
2022-12-27T10:09:30.919Z,101522.41
2022-12-27T10:14:59.626Z,101520.84
2022-12-27T10:20:31.323Z,101503.69
2022-12-27T10:25:36.567Z,101476.66
2022-12-27T10:30:41.132Z,101487.56
2022-12-27T10:35:43.331Z,101455.66
2022-12-27T10:40:59.859Z,101474.88
2022-12-27T10:46:32.482Z,101459.94
2022-12-27T10:51:37.878Z,101463.66
2022-12-27T10:56:42.277Z,101440.97
2022-12-27T11:01:46.555Z,101448.34
2022-12-27T11:07:05.563Z,101421.31
2022-12-27T11:12:25.868Z,101412.06
2022-12-27T11:17:54.342Z,101431.19
2022-12-27T11:23:06.340Z,101370.44
2022-12-27T11:28:29.543Z,101413.34
2022-12-27T11:33:39.751Z,101408.91
2022-12-27T11:38:45.467Z,101327.53
2022-12-27T11:44:01.314Z,101391.75
2022-12-27T11:49:09.644Z,101349.41
2022-12-27T11:54:21.211Z,101368.25
2022-12-27T11:59:26.121Z,101371.31
2022-12-27T12:04:46.169Z,101367.66
2022-12-27T12:10:11.778Z,101367.72
2022-12-27T12:15:32.499Z,101363.22
2022-12-27T12:21:13.352Z,101362.13
2022-12-27T12:26:22.441Z,101321.41
2022-12-27T12:31:42.437Z,101362.28
2022-12-27T12:37:14.654Z,101337.06
2022-12-27T12:42:29.813Z,101304.31
2022-12-27T12:47:50.110Z,101348.81
2022-12-27T12:52:52.095Z,101361.56
2022-12-27T12:58:06.227Z,101358.00
2022-12-27T13:04:06.612Z,101333.06
2022-12-27T13:09:17.862Z,101356.00
2022-12-27T13:14:22.760Z,101353.13
2022-12-27T13:19:59.379Z,101346.56
2022-12-27T13:25:29.586Z,101340.00
2022-12-27T13:30:49.019Z,101334.66
2022-12-27T13:36:13.127Z,101341.13
2022-12-27T13:41:30.208Z,101356.75
2022-12-27T13:46:43.044Z,101328.53
2022-12-27T13:51:50.355Z,101361.31
2022-12-27T13:57:23.662Z,101359.75
2022-12-27T14:02:37.873Z,101360.72
2022-12-27T14:07:51.246Z,101372.72
2022-12-27T14:12:53.365Z,101365.78
2022-12-27T14:18:24.682Z,101371.56
2022-12-27T14:23:54.694Z,101366.91
2022-12-27T14:29:34.251Z,101380.13
2022-12-27T14:34:40.992Z,101385.63
2022-12-27T14:39:51.840Z,101383.31
2022-12-27T14:45:35.142Z,101382.06
2022-12-27T14:51:08.132Z,101381.22
2022-12-27T14:56:24.979Z,101384.63
2022-12-27T15:01:59.235Z,101401.94
2022-12-27T15:07:42.983Z,101398.47
2022-12-27T15:13:26.587Z,101402.91
2022-12-27T15:18:56.046Z,101400.97
2022-12-27T15:24:09.839Z,101403.13
2022-12-27T15:29:24.327Z,101406.44
2022-12-27T15:34:26.562Z,101395.41
2022-12-27T15:39:35.942Z,101399.13
2022-12-27T15:45:02.397Z,101400.19
2022-12-27T15:50:20.675Z,101383.66
2022-12-27T15:55:40.703Z,101415.59
2022-12-27T16:00:44.921Z,101420.28
2022-12-27T16:05:53.995Z,101413.09
2022-12-27T16:10:57.128Z,101404.84
2022-12-27T16:16:00.685Z,101420.63
2022-12-27T16:21:22.940Z,101431.19
2022-12-27T16:26:31.114Z,101433.16
2022-12-27T16:31:41.842Z,101417.00
2022-12-27T16:36:49.004Z,101408.06
2022-12-27T16:41:57.186Z,101451.19
2022-12-27T16:47:11.192Z,101463.72
2022-12-27T16:52:13.369Z,101462.31
2022-12-27T16:57:24.398Z,101460.53
2022-12-27T17:02:40.524Z,101467.69
2022-12-27T17:07:51.725Z,101482.38
2022-12-27T17:13:14.895Z,101472.09
2022-12-27T17:18:31.400Z,101480.88
2022-12-27T17:23:41.078Z,101472.75
2022-12-27T17:29:06.817Z,101463.34
2022-12-27T17:34:11.608Z,101477.19
2022-12-27T17:39:25.812Z,101486.00
2022-12-27T17:44:52.001Z,101449.06
2022-12-27T17:49:58.204Z,101470.78
2022-12-27T17:55:36.177Z,101455.94
2022-12-27T18:26:39.303Z,101429.06
2022-12-27T18:31:55.354Z,101438.47
2022-12-27T18:37:05.230Z,101470.00
2022-12-27T18:42:31.577Z,101482.91
2022-12-27T18:47:40.671Z,101480.44
2022-12-27T18:52:46.293Z,101484.66
2022-12-27T18:58:20.183Z,101473.56
2022-12-27T19:03:23.261Z,101473.56
2022-12-27T19:08:29.246Z,101464.44
2022-12-27T19:13:37.504Z,101479.94
2022-12-27T19:18:39.784Z,101488.38
2022-12-27T19:23:51.752Z,101471.28
2022-12-27T19:29:08.696Z,101499.06
2022-12-27T19:34:17.189Z,101487.56
2022-12-27T19:39:26.077Z,101479.53
2022-12-27T19:44:28.443Z,101497.41
2022-12-27T19:49:45.872Z,101500.06
2022-12-27T19:54:50.200Z,101491.94
2022-12-27T19:59:52.324Z,101457.94
2022-12-27T20:04:54.525Z,101467.09
2022-12-27T20:09:56.797Z,101485.66
2022-12-27T20:14:59.022Z,101494.22
2022-12-27T20:20:01.293Z,101511.53
2022-12-27T20:25:03.507Z,101512.78
2022-12-27T20:30:06.353Z,101484.94
2022-12-27T20:35:10.584Z,101489.88
2022-12-27T20:40:12.964Z,101497.03
2022-12-27T20:45:25.770Z,101500.28
2022-12-27T20:50:27.983Z,101512.09
2022-12-27T20:55:31.760Z,101502.50
2022-12-27T21:00:33.994Z,101509.78
2022-12-27T21:05:37.204Z,101541.41
2022-12-27T21:10:39.375Z,101534.09
2022-12-27T21:15:46.289Z,101510.03
2022-12-27T21:20:48.409Z,101529.47
2022-12-27T21:25:50.593Z,101539.88
2022-12-27T21:31:02.777Z,101532.41
2022-12-27T21:36:08.289Z,101540.81
2022-12-27T21:41:31.104Z,101534.75
2022-12-27T21:46:38.698Z,101527.25
2022-12-27T21:51:42.523Z,101552.44
2022-12-27T21:56:44.731Z,101550.03
2022-12-27T22:01:52.864Z,101555.88
2022-12-27T22:06:55.146Z,101559.06
2022-12-27T22:11:58.843Z,101542.75
2022-12-27T22:17:02.527Z,101550.81
2022-12-27T22:22:04.754Z,101539.38
2022-12-27T22:27:06.942Z,101538.78
2022-12-27T22:32:09.159Z,101554.41
2022-12-27T22:37:11.286Z,101551.16
2022-12-27T22:42:13.446Z,101552.66
2022-12-27T22:47:26.150Z,101566.00
2022-12-27T22:52:29.480Z,101552.88
2022-12-27T22:57:31.665Z,101558.25
2022-12-27T23:02:35.357Z,101559.44
2022-12-27T23:08:06.091Z,101555.53
2022-12-27T23:12:59.844Z,101566.25
2022-12-27T23:18:02.019Z,101530.28
2022-12-27T23:23:04.172Z,101535.31
2022-12-27T23:28:06.289Z,101522.97
2022-12-27T23:33:12.173Z,101521.28
2022-12-27T23:38:14.443Z,101542.53
2022-12-27T23:43:50.374Z,101544.56
2022-12-27T23:48:39.040Z,101542.03
2022-12-27T23:53:42.074Z,101557.16
2022-12-27T23:58:50.771Z,101552.44
